sensor_id;sensor_type;location;lat;lon;timestamp;P1;durP1;ratioP1;P2;durP2;ratioP2
72354;SDS011;60314;55.040;73.076;2022-11-28T00:01:31;34.80;;;10.30;;
72354;SDS011;60314;55.040;73.076;2022-11-28T00:03:59;34.17;;;10.20;;
72354;SDS011;60314;55.040;73.076;2022-11-28T00:06:26;33.90;;;9.77;;
72354;SDS011;60314;55.040;73.076;2022-11-28T00:08:53;31.57;;;8.43;;
72354;SDS011;60314;55.040;73.076;2022-11-28T00:11:22;33.43;;;9.23;;
72354;SDS011;60314;55.040;73.076;2022-11-28T00:13:49;26.77;;;7.50;;
72354;SDS011;60314;55.040;73.076;2022-11-28T00:16:17;30.00;;;9.13;;
72354;SDS011;60314;55.040;73.076;2022-11-28T00:18:49;28.63;;;8.20;;
72354;SDS011;60314;55.040;73.076;2022-11-28T00:21:16;29.97;;;10.43;;
72354;SDS011;60314;55.040;73.076;2022-11-28T00:23:44;27.63;;;8.60;;
72354;SDS011;60314;55.040;73.076;2022-11-28T00:26:13;28.33;;;8.60;;
72354;SDS011;60314;55.040;73.076;2022-11-28T00:28:56;26.37;;;9.07;;
72354;SDS011;60314;55.040;73.076;2022-11-28T00:31:25;30.40;;;7.43;;
72354;SDS011;60314;55.040;73.076;2022-11-28T00:34:08;27.73;;;7.10;;
72354;SDS011;60314;55.040;73.076;2022-11-28T00:36:35;27.83;;;8.43;;
72354;SDS011;60314;55.040;73.076;2022-11-28T00:39:01;28.90;;;8.20;;
72354;SDS011;60314;55.040;73.076;2022-11-28T00:41:29;30.57;;;7.03;;
72354;SDS011;60314;55.040;73.076;2022-11-28T00:43:58;25.17;;;6.87;;
72354;SDS011;60314;55.040;73.076;2022-11-28T00:46:31;28.40;;;8.03;;
72354;SDS011;60314;55.040;73.076;2022-11-28T00:48:57;30.20;;;8.40;;
72354;SDS011;60314;55.040;73.076;2022-11-28T00:51:25;25.73;;;8.37;;
72354;SDS011;60314;55.040;73.076;2022-11-28T00:53:54;26.70;;;8.43;;
72354;SDS011;60314;55.040;73.076;2022-11-28T00:56:31;32.97;;;8.37;;
72354;SDS011;60314;55.040;73.076;2022-11-28T00:58:59;26.03;;;8.17;;
72354;SDS011;60314;55.040;73.076;2022-11-28T01:01:33;30.57;;;6.93;;
72354;SDS011;60314;55.040;73.076;2022-11-28T01:04:04;31.90;;;8.27;;
72354;SDS011;60314;55.040;73.076;2022-11-28T01:06:33;29.40;;;9.00;;
72354;SDS011;60314;55.040;73.076;2022-11-28T01:09:21;30.33;;;7.03;;
72354;SDS011;60314;55.040;73.076;2022-11-28T01:11:49;30.57;;;8.60;;
72354;SDS011;60314;55.040;73.076;2022-11-28T01:14:18;29.53;;;9.27;;
72354;SDS011;60314;55.040;73.076;2022-11-28T01:16:46;31.97;;;9.67;;
72354;SDS011;60314;55.040;73.076;2022-11-28T01:19:12;25.40;;;8.37;;
72354;SDS011;60314;55.040;73.076;2022-11-28T01:21:39;32.97;;;8.07;;
72354;SDS011;60314;55.040;73.076;2022-11-28T01:24:06;33.63;;;9.63;;
72354;SDS011;60314;55.040;73.076;2022-11-28T01:26:43;32.43;;;8.17;;
72354;SDS011;60314;55.040;73.076;2022-11-28T01:29:10;33.83;;;8.80;;
72354;SDS011;60314;55.040;73.076;2022-11-28T01:31:37;30.73;;;9.27;;
72354;SDS011;60314;55.040;73.076;2022-11-28T01:34:14;32.23;;;9.00;;
72354;SDS011;60314;55.040;73.076;2022-11-28T01:36:41;35.87;;;8.60;;
72354;SDS011;60314;55.040;73.076;2022-11-28T01:39:07;23.70;;;7.60;;
72354;SDS011;60314;55.040;73.076;2022-11-28T01:41:35;26.47;;;8.43;;
72354;SDS011;60314;55.040;73.076;2022-11-28T01:46:28;33.57;;;8.53;;
72354;SDS011;60314;55.040;73.076;2022-11-28T01:49:00;28.03;;;8.37;;
72354;SDS011;60314;55.040;73.076;2022-11-28T01:51:30;28.90;;;8.27;;
72354;SDS011;60314;55.040;73.076;2022-11-28T01:54:02;31.13;;;8.38;;
72354;SDS011;60314;55.040;73.076;2022-11-28T01:56:41;34.80;;;7.77;;
72354;SDS011;60314;55.040;73.076;2022-11-28T01:59:12;36.10;;;9.03;;
72354;SDS011;60314;55.040;73.076;2022-11-28T02:01:41;27.93;;;7.20;;
72354;SDS011;60314;55.040;73.076;2022-11-28T02:04:10;29.63;;;7.70;;
72354;SDS011;60314;55.040;73.076;2022-11-28T02:06:49;26.60;;;7.67;;
72354;SDS011;60314;55.040;73.076;2022-11-28T02:09:15;20.20;;;6.47;;
72354;SDS011;60314;55.040;73.076;2022-11-28T02:22:52;18.17;;;6.50;;
72354;SDS011;60314;55.040;73.076;2022-11-28T02:28:36;21.93;;;6.97;;
72354;SDS011;60314;55.040;73.076;2022-11-28T02:31:28;17.33;;;5.43;;
72354;SDS011;60314;55.040;73.076;2022-11-28T02:34:39;24.60;;;7.00;;
72354;SDS011;60314;55.040;73.076;2022-11-28T02:37:39;28.33;;;7.27;;
72354;SDS011;60314;55.040;73.076;2022-11-28T02:45:35;28.80;;;7.67;;
72354;SDS011;60314;55.040;73.076;2022-11-28T02:48:10;35.77;;;8.03;;
72354;SDS011;60314;55.040;73.076;2022-11-28T02:50:44;32.03;;;8.57;;
72354;SDS011;60314;55.040;73.076;2022-11-28T02:53:21;28.27;;;8.10;;
72354;SDS011;60314;55.040;73.076;2022-11-28T02:55:50;21.07;;;7.67;;
72354;SDS011;60314;55.040;73.076;2022-11-28T02:58:17;30.03;;;9.10;;
72354;SDS011;60314;55.040;73.076;2022-11-28T03:00:44;27.33;;;9.43;;
72354;SDS011;60314;55.040;73.076;2022-11-28T03:11:48;38.57;;;10.97;;
72354;SDS011;60314;55.040;73.076;2022-11-28T03:17:36;31.07;;;9.27;;
72354;SDS011;60314;55.040;73.076;2022-11-28T03:25:54;37.43;;;10.77;;
72354;SDS011;60314;55.040;73.076;2022-11-28T03:28:25;30.93;;;8.83;;
72354;SDS011;60314;55.040;73.076;2022-11-28T03:31:03;32.70;;;8.27;;
72354;SDS011;60314;55.040;73.076;2022-11-28T03:33:52;29.60;;;8.97;;
72354;SDS011;60314;55.040;73.076;2022-11-28T03:36:25;26.42;;;8.68;;
72354;SDS011;60314;55.040;73.076;2022-11-28T03:39:10;34.83;;;9.73;;
72354;SDS011;60314;55.040;73.076;2022-11-28T03:44:21;31.07;;;8.70;;
72354;SDS011;60314;55.040;73.076;2022-11-28T03:47:03;21.50;;;6.80;;
72354;SDS011;60314;55.040;73.076;2022-11-28T03:49:37;23.30;;;7.90;;
72354;SDS011;60314;55.040;73.076;2022-11-28T03:52:10;32.53;;;7.88;;
72354;SDS011;60314;55.040;73.076;2022-11-28T04:04:17;26.80;;;7.93;;
72354;SDS011;60314;55.040;73.076;2022-11-28T04:06:52;22.03;;;6.30;;
72354;SDS011;60314;55.040;73.076;2022-11-28T04:09:46;22.27;;;6.50;;
72354;SDS011;60314;55.040;73.076;2022-11-28T04:15:26;17.67;;;5.27;;
72354;SDS011;60314;55.040;73.076;2022-11-28T04:17:54;21.40;;;5.00;;
72354;SDS011;60314;55.040;73.076;2022-11-28T04:23:18;22.83;;;6.33;;
72354;SDS011;60314;55.040;73.076;2022-11-28T04:25:50;30.57;;;7.20;;
72354;SDS011;60314;55.040;73.076;2022-11-28T04:28:21;23.80;;;6.33;;
72354;SDS011;60314;55.040;73.076;2022-11-28T04:30:50;22.60;;;6.97;;
72354;SDS011;60314;55.040;73.076;2022-11-28T04:33:20;28.13;;;6.73;;
72354;SDS011;60314;55.040;73.076;2022-11-28T04:35:50;21.17;;;5.80;;
72354;SDS011;60314;55.040;73.076;2022-11-28T04:38:20;18.93;;;5.10;;
72354;SDS011;60314;55.040;73.076;2022-11-28T04:41:03;17.23;;;4.23;;
72354;SDS011;60314;55.040;73.076;2022-11-28T04:43:46;16.93;;;4.40;;
72354;SDS011;60314;55.040;73.076;2022-11-28T04:46:18;22.87;;;5.33;;
72354;SDS011;60314;55.040;73.076;2022-11-28T04:48:51;19.33;;;5.53;;
72354;SDS011;60314;55.040;73.076;2022-11-28T04:54:05;13.47;;;3.53;;
72354;SDS011;60314;55.040;73.076;2022-11-28T04:56:43;17.13;;;5.00;;
72354;SDS011;60314;55.040;73.076;2022-11-28T04:59:15;18.47;;;4.70;;
72354;SDS011;60314;55.040;73.076;2022-11-28T05:01:42;15.60;;;5.30;;
72354;SDS011;60314;55.040;73.076;2022-11-28T05:04:22;21.27;;;4.93;;
72354;SDS011;60314;55.040;73.076;2022-11-28T05:06:48;19.13;;;6.47;;
72354;SDS011;60314;55.040;73.076;2022-11-28T05:09:15;13.63;;;4.57;;
72354;SDS011;60314;55.040;73.076;2022-11-28T05:11:42;20.93;;;5.80;;
72354;SDS011;60314;55.040;73.076;2022-11-28T05:14:08;25.57;;;6.27;;
72354;SDS011;60314;55.040;73.076;2022-11-28T05:16:35;18.60;;;5.33;;
72354;SDS011;60314;55.040;73.076;2022-11-28T05:19:11;13.63;;;3.90;;
72354;SDS011;60314;55.040;73.076;2022-11-28T05:21:49;13.93;;;4.87;;
72354;SDS011;60314;55.040;73.076;2022-11-28T05:24:18;11.80;;;4.27;;
72354;SDS011;60314;55.040;73.076;2022-11-28T05:26:44;8.93;;;3.40;;
72354;SDS011;60314;55.040;73.076;2022-11-28T05:29:11;16.17;;;4.37;;
72354;SDS011;60314;55.040;73.076;2022-11-28T05:31:37;15.40;;;4.60;;
72354;SDS011;60314;55.040;73.076;2022-11-28T05:34:03;19.23;;;4.97;;
72354;SDS011;60314;55.040;73.076;2022-11-28T05:36:30;12.87;;;3.80;;
72354;SDS011;60314;55.040;73.076;2022-11-28T05:38:56;9.27;;;3.50;;
72354;SDS011;60314;55.040;73.076;2022-11-28T05:41:33;11.80;;;4.13;;
72354;SDS011;60314;55.040;73.076;2022-11-28T05:43:59;10.00;;;3.97;;
72354;SDS011;60314;55.040;73.076;2022-11-28T05:46:30;13.30;;;3.77;;
72354;SDS011;60314;55.040;73.076;2022-11-28T05:49:01;9.50;;;3.50;;
72354;SDS011;60314;55.040;73.076;2022-11-28T05:51:33;11.88;;;3.70;;
72354;SDS011;60314;55.040;73.076;2022-11-28T05:54:10;14.27;;;4.03;;
72354;SDS011;60314;55.040;73.076;2022-11-28T05:56:36;11.90;;;3.23;;
72354;SDS011;60314;55.040;73.076;2022-11-28T05:59:03;15.90;;;3.07;;
72354;SDS011;60314;55.040;73.076;2022-11-28T06:01:52;12.53;;;3.40;;
72354;SDS011;60314;55.040;73.076;2022-11-28T06:04:18;6.33;;;2.80;;
72354;SDS011;60314;55.040;73.076;2022-11-28T06:06:45;10.87;;;4.43;;
72354;SDS011;60314;55.040;73.076;2022-11-28T06:09:14;15.20;;;3.53;;
72354;SDS011;60314;55.040;73.076;2022-11-28T06:11:40;17.87;;;2.90;;
72354;SDS011;60314;55.040;73.076;2022-11-28T06:14:07;13.73;;;3.63;;
72354;SDS011;60314;55.040;73.076;2022-11-28T06:16:34;19.83;;;3.60;;
72354;SDS011;60314;55.040;73.076;2022-11-28T06:19:02;12.70;;;3.60;;
72354;SDS011;60314;55.040;73.076;2022-11-28T06:21:30;14.63;;;2.27;;
72354;SDS011;60314;55.040;73.076;2022-11-28T06:24:02;11.20;;;3.77;;
72354;SDS011;60314;55.040;73.076;2022-11-28T06:26:28;6.23;;;1.43;;
72354;SDS011;60314;55.040;73.076;2022-11-28T06:28:54;6.63;;;1.97;;
72354;SDS011;60314;55.040;73.076;2022-11-28T06:31:22;16.63;;;3.33;;
72354;SDS011;60314;55.040;73.076;2022-11-28T06:33:59;12.80;;;2.47;;
72354;SDS011;60314;55.040;73.076;2022-11-28T06:36:25;8.77;;;3.23;;
72354;SDS011;60314;55.040;73.076;2022-11-28T06:38:56;6.78;;;2.08;;
72354;SDS011;60314;55.040;73.076;2022-11-28T06:41:23;12.00;;;2.60;;
72354;SDS011;60314;55.040;73.076;2022-11-28T06:43:49;10.27;;;3.57;;
72354;SDS011;60314;55.040;73.076;2022-11-28T06:46:21;11.05;;;2.25;;
72354;SDS011;60314;55.040;73.076;2022-11-28T06:48:57;10.97;;;2.83;;
72354;SDS011;60314;55.040;73.076;2022-11-28T06:51:24;20.87;;;3.30;;
72354;SDS011;60314;55.040;73.076;2022-11-28T06:53:50;17.10;;;2.67;;
72354;SDS011;60314;55.040;73.076;2022-11-28T06:56:27;13.40;;;3.03;;
72354;SDS011;60314;55.040;73.076;2022-11-28T06:58:54;15.83;;;5.07;;
72354;SDS011;60314;55.040;73.076;2022-11-28T07:01:28;16.10;;;4.10;;
72354;SDS011;60314;55.040;73.076;2022-11-28T07:03:56;8.90;;;2.60;;
72354;SDS011;60314;55.040;73.076;2022-11-28T07:06:23;14.33;;;4.03;;
72354;SDS011;60314;55.040;73.076;2022-11-28T07:08:51;12.80;;;2.60;;
72354;SDS011;60314;55.040;73.076;2022-11-28T07:11:20;22.57;;;4.80;;
72354;SDS011;60314;55.040;73.076;2022-11-28T07:13:51;17.60;;;3.43;;
72354;SDS011;60314;55.040;73.076;2022-11-28T07:16:29;14.73;;;3.57;;
72354;SDS011;60314;55.040;73.076;2022-11-28T07:18:57;13.73;;;3.73;;
72354;SDS011;60314;55.040;73.076;2022-11-28T07:21:25;20.63;;;4.43;;
72354;SDS011;60314;55.040;73.076;2022-11-28T07:23:52;13.37;;;4.10;;
72354;SDS011;60314;55.040;73.076;2022-11-28T07:26:19;20.60;;;4.37;;
72354;SDS011;60314;55.040;73.076;2022-11-28T07:28:47;9.75;;;3.97;;
72354;SDS011;60314;55.040;73.076;2022-11-28T07:31:24;30.23;;;4.20;;
72354;SDS011;60314;55.040;73.076;2022-11-28T07:33:59;5.03;;;1.97;;
72354;SDS011;60314;55.040;73.076;2022-11-28T07:36:28;20.07;;;4.60;;
72354;SDS011;60314;55.040;73.076;2022-11-28T07:39:01;13.47;;;3.57;;
72354;SDS011;60314;55.040;73.076;2022-11-28T07:41:29;15.75;;;3.78;;
72354;SDS011;60314;55.040;73.076;2022-11-28T07:43:57;13.40;;;3.47;;
72354;SDS011;60314;55.040;73.076;2022-11-28T07:46:31;19.27;;;3.80;;
72354;SDS011;60314;55.040;73.076;2022-11-28T07:48:59;11.73;;;3.20;;
72354;SDS011;60314;55.040;73.076;2022-11-28T07:51:30;10.87;;;4.53;;
72354;SDS011;60314;55.040;73.076;2022-11-28T07:53:58;18.77;;;4.32;;
72354;SDS011;60314;55.040;73.076;2022-11-28T07:56:27;5.87;;;2.37;;
72354;SDS011;60314;55.040;73.076;2022-11-28T07:58:54;15.73;;;3.13;;
72354;SDS011;60314;55.040;73.076;2022-11-28T08:01:22;5.07;;;1.80;;
72354;SDS011;60314;55.040;73.076;2022-11-28T08:03:51;10.40;;;2.77;;
72354;SDS011;60314;55.040;73.076;2022-11-28T08:06:18;21.40;;;3.87;;
72354;SDS011;60314;55.040;73.076;2022-11-28T08:08:47;15.95;;;3.55;;
72354;SDS011;60314;55.040;73.076;2022-11-28T08:11:15;22.73;;;3.73;;
72354;SDS011;60314;55.040;73.076;2022-11-28T08:13:48;4.20;;;1.73;;
72354;SDS011;60314;55.040;73.076;2022-11-28T08:16:16;22.23;;;3.37;;
72354;SDS011;60314;55.040;73.076;2022-11-28T08:18:46;11.23;;;3.37;;
72354;SDS011;60314;55.040;73.076;2022-11-28T08:21:15;10.93;;;2.80;;
72354;SDS011;60314;55.040;73.076;2022-11-28T08:23:43;6.97;;;2.83;;
72354;SDS011;60314;55.040;73.076;2022-11-28T08:26:18;12.98;;;2.45;;
72354;SDS011;60314;55.040;73.076;2022-11-28T08:28:46;12.20;;;2.97;;
72354;SDS011;60314;55.040;73.076;2022-11-28T08:33:50;5.50;;;1.65;;
72354;SDS011;60314;55.040;73.076;2022-11-28T08:36:17;11.82;;;3.15;;
72354;SDS011;60314;55.040;73.076;2022-11-28T08:38:58;18.25;;;2.45;;
72354;SDS011;60314;55.040;73.076;2022-11-28T08:41:25;5.03;;;1.25;;
72354;SDS011;60314;55.040;73.076;2022-11-28T08:43:53;7.97;;;2.58;;
72354;SDS011;60314;55.040;73.076;2022-11-28T08:46:25;15.05;;;3.10;;
72354;SDS011;60314;55.040;73.076;2022-11-28T08:48:55;10.33;;;2.37;;
72354;SDS011;60314;55.040;73.076;2022-11-28T08:51:23;6.00;;;2.07;;
72354;SDS011;60314;55.040;73.076;2022-11-28T08:53:50;10.50;;;2.47;;
72354;SDS011;60314;55.040;73.076;2022-11-28T08:56:27;17.97;;;2.53;;
72354;SDS011;60314;55.040;73.076;2022-11-28T08:59:01;14.33;;;3.67;;
72354;SDS011;60314;55.040;73.076;2022-11-28T09:01:28;20.65;;;3.00;;
72354;SDS011;60314;55.040;73.076;2022-11-28T09:03:55;10.67;;;3.07;;
72354;SDS011;60314;55.040;73.076;2022-11-28T09:08:54;11.30;;;3.73;;
72354;SDS011;60314;55.040;73.076;2022-11-28T09:11:20;7.43;;;1.30;;
72354;SDS011;60314;55.040;73.076;2022-11-28T09:13:48;4.05;;;1.60;;
72354;SDS011;60314;55.040;73.076;2022-11-28T09:16:15;1.42;;;0.35;;
72354;SDS011;60314;55.040;73.076;2022-11-28T09:18:41;6.88;;;1.77;;
72354;SDS011;60314;55.040;73.076;2022-11-28T09:21:19;6.07;;;1.50;;
72354;SDS011;60314;55.040;73.076;2022-11-28T09:23:45;14.73;;;3.85;;
72354;SDS011;60314;55.040;73.076;2022-11-28T09:26:22;12.52;;;2.28;;
72354;SDS011;60314;55.040;73.076;2022-11-28T09:28:50;13.65;;;2.17;;
72354;SDS011;60314;55.040;73.076;2022-11-28T09:31:26;12.82;;;2.78;;
72354;SDS011;60314;55.040;73.076;2022-11-28T09:33:53;10.25;;;2.08;;
72354;SDS011;60314;55.040;73.076;2022-11-28T09:36:20;11.52;;;2.42;;
72354;SDS011;60314;55.040;73.076;2022-11-28T09:38:52;11.60;;;2.50;;
72354;SDS011;60314;55.040;73.076;2022-11-28T09:44:06;11.07;;;3.15;;
72354;SDS011;60314;55.040;73.076;2022-11-28T09:46:43;11.13;;;2.67;;
72354;SDS011;60314;55.040;73.076;2022-11-28T09:49:16;8.18;;;2.13;;
72354;SDS011;60314;55.040;73.076;2022-11-28T09:51:54;5.10;;;2.22;;
72354;SDS011;60314;55.040;73.076;2022-11-28T09:54:31;9.80;;;2.38;;
72354;SDS011;60314;55.040;73.076;2022-11-28T09:57:19;8.77;;;2.67;;
72354;SDS011;60314;55.040;73.076;2022-11-28T09:59:53;8.15;;;3.15;;
72354;SDS011;60314;55.040;73.076;2022-11-28T10:05:04;12.02;;;3.40;;
72354;SDS011;60314;55.040;73.076;2022-11-28T10:10:41;8.07;;;2.20;;
72354;SDS011;60314;55.040;73.076;2022-11-28T10:18:34;14.48;;;3.75;;
72354;SDS011;60314;55.040;73.076;2022-11-28T10:21:30;9.20;;;2.03;;
72354;SDS011;60314;55.040;73.076;2022-11-28T10:24:02;10.23;;;2.90;;
72354;SDS011;60314;55.040;73.076;2022-11-28T10:26:42;10.50;;;3.30;;
72354;SDS011;60314;55.040;73.076;2022-11-28T10:31:46;10.47;;;3.10;;
72354;SDS011;60314;55.040;73.076;2022-11-28T10:34:16;10.33;;;2.97;;
72354;SDS011;60314;55.040;73.076;2022-11-28T10:39:17;5.93;;;2.30;;
72354;SDS011;60314;55.040;73.076;2022-11-28T10:52:42;10.35;;;2.78;;
72354;SDS011;60314;55.040;73.076;2022-11-28T11:00:42;22.43;;;3.13;;
72354;SDS011;60314;55.040;73.076;2022-11-28T11:03:10;6.37;;;1.93;;
72354;SDS011;60314;55.040;73.076;2022-11-28T11:05:45;6.47;;;2.07;;
72354;SDS011;60314;55.040;73.076;2022-11-28T11:08:17;5.87;;;2.30;;
72354;SDS011;60314;55.040;73.076;2022-11-28T11:10:50;5.30;;;1.80;;
72354;SDS011;60314;55.040;73.076;2022-11-28T11:13:18;4.85;;;1.15;;
72354;SDS011;60314;55.040;73.076;2022-11-28T11:18:37;4.97;;;1.93;;
72354;SDS011;60314;55.040;73.076;2022-11-28T11:21:24;13.37;;;2.73;;
72354;SDS011;60314;55.040;73.076;2022-11-28T11:24:25;10.50;;;2.33;;
72354;SDS011;60314;55.040;73.076;2022-11-28T11:26:46;12.30;;;2.57;;
72354;SDS011;60314;55.040;73.076;2022-11-28T11:31:54;9.80;;;2.93;;
72354;SDS011;60314;55.040;73.076;2022-11-28T11:34:28;16.73;;;2.07;;
72354;SDS011;60314;55.040;73.076;2022-11-28T11:37:18;10.83;;;2.20;;
72354;SDS011;60314;55.040;73.076;2022-11-28T11:40:26;5.73;;;2.17;;
72354;SDS011;60314;55.040;73.076;2022-11-28T11:42:54;14.70;;;3.23;;
72354;SDS011;60314;55.040;73.076;2022-11-28T11:45:29;4.53;;;1.70;;
72354;SDS011;60314;55.040;73.076;2022-11-28T11:48:00;10.13;;;2.80;;
72354;SDS011;60314;55.040;73.076;2022-11-28T11:50:29;4.20;;;1.50;;
72354;SDS011;60314;55.040;73.076;2022-11-28T11:53:10;8.00;;;2.13;;
72354;SDS011;60314;55.040;73.076;2022-11-28T11:55:42;8.30;;;2.13;;
72354;SDS011;60314;55.040;73.076;2022-11-28T11:58:18;8.40;;;2.73;;
72354;SDS011;60314;55.040;73.076;2022-11-28T12:00:48;9.93;;;3.23;;
72354;SDS011;60314;55.040;73.076;2022-11-28T12:03:25;16.63;;;4.28;;
72354;SDS011;60314;55.040;73.076;2022-11-28T12:06:02;17.30;;;2.63;;
72354;SDS011;60314;55.040;73.076;2022-11-28T12:13:57;17.77;;;4.23;;
72354;SDS011;60314;55.040;73.076;2022-11-28T12:19:11;15.30;;;4.93;;
72354;SDS011;60314;55.040;73.076;2022-11-28T12:21:58;22.57;;;4.30;;
72354;SDS011;60314;55.040;73.076;2022-11-28T12:33:19;19.93;;;5.20;;
72354;SDS011;60314;55.040;73.076;2022-11-28T12:43:41;32.03;;;8.97;;
72354;SDS011;60314;55.040;73.076;2022-11-28T12:57:17;40.33;;;8.87;;
72354;SDS011;60314;55.040;73.076;2022-11-28T13:02:36;26.10;;;7.43;;
72354;SDS011;60314;55.040;73.076;2022-11-28T13:05:18;31.27;;;7.80;;
72354;SDS011;60314;55.040;73.076;2022-11-28T13:13:34;28.10;;;8.48;;
72354;SDS011;60314;55.040;73.076;2022-11-28T13:16:10;50.43;;;9.57;;
72354;SDS011;60314;55.040;73.076;2022-11-28T13:18:57;27.03;;;8.80;;
72354;SDS011;60314;55.040;73.076;2022-11-28T13:35:14;34.17;;;8.40;;
72354;SDS011;60314;55.040;73.076;2022-11-28T13:37:44;39.53;;;8.33;;
72354;SDS011;60314;55.040;73.076;2022-11-28T13:45:45;39.37;;;8.40;;
72354;SDS011;60314;55.040;73.076;2022-11-28T13:53:40;52.20;;;14.33;;
72354;SDS011;60314;55.040;73.076;2022-11-28T13:56:22;64.80;;;15.87;;
72354;SDS011;60314;55.040;73.076;2022-11-28T13:58:58;48.63;;;9.37;;
72354;SDS011;60314;55.040;73.076;2022-11-28T14:01:41;32.13;;;8.57;;
72354;SDS011;60314;55.040;73.076;2022-11-28T14:04:10;36.33;;;7.40;;
72354;SDS011;60314;55.040;73.076;2022-11-28T14:06:43;30.77;;;7.67;;
72354;SDS011;60314;55.040;73.076;2022-11-28T14:20:25;24.13;;;7.50;;
72354;SDS011;60314;55.040;73.076;2022-11-28T14:25:58;45.27;;;8.43;;
72354;SDS011;60314;55.040;73.076;2022-11-28T14:28:31;25.30;;;7.20;;
72354;SDS011;60314;55.040;73.076;2022-11-28T14:33:37;27.70;;;7.73;;
72354;SDS011;60314;55.040;73.076;2022-11-28T14:47:28;38.50;;;10.07;;
72354;SDS011;60314;55.040;73.076;2022-11-28T14:52:39;33.50;;;8.37;;
72354;SDS011;60314;55.040;73.076;2022-11-28T15:00:14;35.07;;;8.60;;
72354;SDS011;60314;55.040;73.076;2022-11-28T15:03:01;32.20;;;7.67;;
72354;SDS011;60314;55.040;73.076;2022-11-28T15:05:53;35.93;;;9.63;;
72354;SDS011;60314;55.040;73.076;2022-11-28T15:11:25;33.47;;;9.87;;
72354;SDS011;60314;55.040;73.076;2022-11-28T15:16:35;32.00;;;8.47;;
72354;SDS011;60314;55.040;73.076;2022-11-28T15:21:54;32.97;;;7.90;;
72354;SDS011;60314;55.040;73.076;2022-11-28T15:24:25;32.37;;;8.07;;
72354;SDS011;60314;55.040;73.076;2022-11-28T15:26:56;39.00;;;8.90;;
72354;SDS011;60314;55.040;73.076;2022-11-28T15:29:40;30.53;;;7.90;;
72354;SDS011;60314;55.040;73.076;2022-11-28T15:32:10;34.63;;;7.57;;
72354;SDS011;60314;55.040;73.076;2022-11-28T15:34:43;27.00;;;7.17;;
72354;SDS011;60314;55.040;73.076;2022-11-28T15:37:27;17.30;;;6.43;;
72354;SDS011;60314;55.040;73.076;2022-11-28T15:39:58;26.40;;;6.00;;
72354;SDS011;60314;55.040;73.076;2022-11-28T15:42:33;27.07;;;7.67;;
72354;SDS011;60314;55.040;73.076;2022-11-28T15:45:07;23.73;;;7.90;;
72354;SDS011;60314;55.040;73.076;2022-11-28T15:47:47;27.90;;;7.57;;
72354;SDS011;60314;55.040;73.076;2022-11-28T15:50:16;25.13;;;7.43;;
72354;SDS011;60314;55.040;73.076;2022-11-28T15:55:25;26.60;;;6.83;;
72354;SDS011;60314;55.040;73.076;2022-11-28T16:00:59;21.67;;;6.93;;
72354;SDS011;60314;55.040;73.076;2022-11-28T16:03:40;21.10;;;6.70;;
72354;SDS011;60314;55.040;73.076;2022-11-28T16:06:18;25.87;;;6.93;;
72354;SDS011;60314;55.040;73.076;2022-11-28T16:08:52;24.77;;;6.10;;
72354;SDS011;60314;55.040;73.076;2022-11-28T16:11:22;22.03;;;6.70;;
72354;SDS011;60314;55.040;73.076;2022-11-28T16:13:50;39.37;;;7.00;;
72354;SDS011;60314;55.040;73.076;2022-11-28T16:16:30;27.03;;;6.43;;
72354;SDS011;60314;55.040;73.076;2022-11-28T16:19:29;32.30;;;7.30;;
72354;SDS011;60314;55.040;73.076;2022-11-28T16:22:04;26.73;;;6.50;;
72354;SDS011;60314;55.040;73.076;2022-11-28T16:24:46;22.63;;;7.45;;
72354;SDS011;60314;55.040;73.076;2022-11-28T16:27:35;30.03;;;8.53;;
72354;SDS011;60314;55.040;73.076;2022-11-28T16:30:23;35.43;;;7.87;;
72354;SDS011;60314;55.040;73.076;2022-11-28T16:32:50;27.27;;;6.87;;
72354;SDS011;60314;55.040;73.076;2022-11-28T16:40:46;26.70;;;7.25;;
72354;SDS011;60314;55.040;73.076;2022-11-28T16:43:22;24.87;;;5.97;;
72354;SDS011;60314;55.040;73.076;2022-11-28T16:46:05;19.23;;;5.93;;
72354;SDS011;60314;55.040;73.076;2022-11-28T16:48:34;20.60;;;6.17;;
72354;SDS011;60314;55.040;73.076;2022-11-28T16:53:44;24.57;;;7.47;;
72354;SDS011;60314;55.040;73.076;2022-11-28T17:01:53;26.00;;;6.77;;
72354;SDS011;60314;55.040;73.076;2022-11-28T17:04:25;12.32;;;4.32;;
72354;SDS011;60314;55.040;73.076;2022-11-28T17:06:55;24.07;;;5.53;;
72354;SDS011;60314;55.040;73.076;2022-11-28T17:09:29;20.93;;;5.17;;
72354;SDS011;60314;55.040;73.076;2022-11-28T17:12:03;16.73;;;5.73;;
72354;SDS011;60314;55.040;73.076;2022-11-28T17:14:36;22.23;;;6.23;;
72354;SDS011;60314;55.040;73.076;2022-11-28T17:17:13;18.67;;;5.27;;
72354;SDS011;60314;55.040;73.076;2022-11-28T17:19:40;17.77;;;5.03;;
72354;SDS011;60314;55.040;73.076;2022-11-28T17:22:35;20.37;;;5.87;;
72354;SDS011;60314;55.040;73.076;2022-11-28T17:25:08;25.43;;;6.30;;
72354;SDS011;60314;55.040;73.076;2022-11-28T17:27:49;18.77;;;4.30;;
72354;SDS011;60314;55.040;73.076;2022-11-28T17:30:27;24.50;;;7.23;;
72354;SDS011;60314;55.040;73.076;2022-11-28T17:32:54;18.03;;;4.80;;
72354;SDS011;60314;55.040;73.076;2022-11-28T17:35:21;23.17;;;6.03;;
72354;SDS011;60314;55.040;73.076;2022-11-28T17:37:50;29.33;;;6.70;;
72354;SDS011;60314;55.040;73.076;2022-11-28T17:40:16;21.07;;;6.30;;
72354;SDS011;60314;55.040;73.076;2022-11-28T17:43:14;18.53;;;6.20;;
72354;SDS011;60314;55.040;73.076;2022-11-28T17:45:48;25.30;;;7.03;;
72354;SDS011;60314;55.040;73.076;2022-11-28T17:48:25;20.40;;;6.23;;
72354;SDS011;60314;55.040;73.076;2022-11-28T17:50:55;27.77;;;7.03;;
72354;SDS011;60314;55.040;73.076;2022-11-28T17:53:22;27.07;;;7.00;;
72354;SDS011;60314;55.040;73.076;2022-11-28T17:55:48;24.63;;;7.07;;
72354;SDS011;60314;55.040;73.076;2022-11-28T17:58:19;24.90;;;7.20;;
72354;SDS011;60314;55.040;73.076;2022-11-28T18:00:47;22.43;;;6.50;;
72354;SDS011;60314;55.040;73.076;2022-11-28T18:03:24;22.83;;;5.87;;
72354;SDS011;60314;55.040;73.076;2022-11-28T18:06:02;23.60;;;5.63;;
72354;SDS011;60314;55.040;73.076;2022-11-28T18:08:31;29.40;;;8.20;;
72354;SDS011;60314;55.040;73.076;2022-11-28T18:11:03;20.80;;;6.93;;
72354;SDS011;60314;55.040;73.076;2022-11-28T18:13:40;23.50;;;6.47;;
72354;SDS011;60314;55.040;73.076;2022-11-28T18:16:11;22.03;;;6.50;;
72354;SDS011;60314;55.040;73.076;2022-11-28T18:18:40;30.60;;;8.00;;
72354;SDS011;60314;55.040;73.076;2022-11-28T18:21:08;17.43;;;5.17;;
72354;SDS011;60314;55.040;73.076;2022-11-28T18:23:38;20.87;;;6.00;;
72354;SDS011;60314;55.040;73.076;2022-11-28T18:28:35;23.13;;;5.93;;
72354;SDS011;60314;55.040;73.076;2022-11-28T18:31:09;28.07;;;6.27;;
72354;SDS011;60314;55.040;73.076;2022-11-28T18:33:37;20.90;;;5.70;;
72354;SDS011;60314;55.040;73.076;2022-11-28T18:36:14;23.97;;;5.67;;
72354;SDS011;60314;55.040;73.076;2022-11-28T18:38:47;15.90;;;3.57;;
72354;SDS011;60314;55.040;73.076;2022-11-28T18:41:16;23.47;;;6.40;;
72354;SDS011;60314;55.040;73.076;2022-11-28T18:43:43;22.70;;;6.13;;
72354;SDS011;60314;55.040;73.076;2022-11-28T18:46:13;23.00;;;6.30;;
72354;SDS011;60314;55.040;73.076;2022-11-28T18:48:43;19.57;;;6.90;;
72354;SDS011;60314;55.040;73.076;2022-11-28T18:51:12;30.50;;;5.93;;
72354;SDS011;60314;55.040;73.076;2022-11-28T18:53:44;28.53;;;7.77;;
72354;SDS011;60314;55.040;73.076;2022-11-28T18:56:11;25.73;;;7.10;;